Time;durP1;ratioP1;P1;durP2;ratioP2;P2;SDS_P1;SDS_P2;PMS_P1;PMS_P2;Temp;Humidity;BMP_temperature;BMP_pressure;BME280_temperature;BME280_humidity;BME280_pressure;Samples;Min_cycle;Max_cycle;Signal;HPM_P1;HPM_P2
2021/05/16 00:02:01;;;;;;;17.13;5.33;;;10.20;99.90;;;;;;5072684;28;20206;-65
2021/05/16 00:04:26;;;;;;;11.53;4.93;;;10.20;99.90;;;;;;5072430;28;20213;-66
2021/05/16 00:06:53;;;;;;;11.50;4.80;;;10.30;99.90;;;;;;5072923;28;20213;-66
2021/05/16 00:09:18;;;;;;;11.97;4.43;;;10.40;99.90;;;;;;5072606;28;20324;-66
2021/05/16 00:11:44;;;;;;;13.67;4.50;;;10.50;99.90;;;;;;5072744;28;20205;-65
2021/05/16 00:14:10;;;;;;;9.10;3.97;;;10.60;99.90;;;;;;5072573;28;20290;-65
2021/05/16 00:16:37;;;;;;;12.20;4.97;;;10.60;99.90;;;;;;5072758;28;20549;-65
2021/05/16 00:19:03;;;;;;;12.23;5.23;;;10.70;99.90;;;;;;5072960;28;20213;-66
2021/05/16 00:21:28;;;;;;;9.47;4.27;;;10.80;99.90;;;;;;5072305;28;20202;-65
2021/05/16 00:23:54;;;;;;;13.83;5.03;;;10.80;99.90;;;;;;5072497;28;20255;-65
2021/05/16 00:26:20;;;;;;;13.40;6.03;;;10.80;99.90;;;;;;5072366;28;20652;-66
2021/05/16 00:28:45;;;;;;;12.87;4.97;;;10.90;99.90;;;;;;5072323;28;20174;-65
2021/05/16 00:31:11;;;;;;;14.07;5.07;;;11.00;99.90;;;;;;5072010;28;20178;-65
2021/05/16 00:33:37;;;;;;;16.37;5.30;;;11.00;99.90;;;;;;5072122;28;20209;-66
2021/05/16 00:36:03;;;;;;;16.27;5.17;;;11.00;99.90;;;;;;5072498;28;20217;-65
2021/05/16 00:38:28;;;;;;;13.03;5.37;;;11.00;99.90;;;;;;5072036;28;20182;-65
2021/05/16 00:40:54;;;;;;;14.47;5.00;;;11.00;99.90;;;;;;5071988;28;20185;-66
2021/05/16 00:43:20;;;;;;;12.13;4.70;;;11.00;99.90;;;;;;5070997;28;20198;-66
2021/05/16 00:45:47;;;;;;;18.43;4.77;;;10.90;99.90;;;;;;5072275;28;20193;-65
2021/05/16 00:48:14;;;;;;;16.37;4.90;;;10.90;99.90;;;;;;5071775;28;20162;-65
2021/05/16 00:50:42;;;;;;;14.27;4.33;;;10.80;99.90;;;;;;5071825;28;20773;-65
2021/05/16 00:53:09;;;;;;;13.27;5.03;;;10.70;99.90;;;;;;5070968;28;20198;-66
2021/05/16 00:55:35;;;;;;;16.97;5.50;;;10.50;99.90;;;;;;5071814;28;20644;-66
2021/05/16 00:58:02;;;;;;;11.30;5.40;;;10.40;99.90;;;;;;5071649;28;20178;-66
2021/05/16 01:00:32;;;;;;;12.20;5.27;;;10.30;99.90;;;;;;5071476;28;20173;-65
2021/05/16 01:02:58;;;;;;;14.23;5.30;;;10.20;99.90;;;;;;5071608;28;20206;-65
2021/05/16 01:05:24;;;;;;;12.30;4.93;;;10.10;99.90;;;;;;5071795;28;20262;-65
2021/05/16 01:07:50;;;;;;;15.40;4.90;;;9.90;99.90;;;;;;5071669;28;20265;-65
2021/05/16 01:10:17;;;;;;;14.47;4.47;;;9.80;99.90;;;;;;5071230;28;20166;-65
2021/05/16 01:12:47;;;;;;;12.23;4.73;;;9.80;99.90;;;;;;5071519;28;20193;-65
2021/05/16 01:15:18;;;;;;;9.43;5.07;;;9.80;99.90;;;;;;5071671;28;20219;-66
2021/05/16 01:17:44;;;;;;;15.03;5.00;;;9.70;99.90;;;;;;5071598;28;20178;-66
2021/05/16 01:20:15;;;;;;;15.83;5.07;;;9.60;99.90;;;;;;5071355;28;20182;-65
2021/05/16 01:22:40;;;;;;;20.50;5.23;;;9.60;99.90;;;;;;5071407;28;20575;-66
2021/05/16 01:25:08;;;;;;;11.30;5.33;;;9.50;99.90;;;;;;5071618;28;20166;-65
2021/05/16 01:27:35;;;;;;;10.43;5.50;;;9.50;99.90;;;;;;5071439;28;20658;-65
2021/05/16 01:30:03;;;;;;;14.17;4.90;;;9.50;99.90;;;;;;5071362;28;20181;-65
2021/05/16 01:32:29;;;;;;;16.17;6.33;;;9.50;99.90;;;;;;5071082;28;20528;-65
2021/05/16 01:34:54;;;;;;;14.93;5.17;;;9.50;99.90;;;;;;5071259;28;20240;-65
2021/05/16 01:37:20;;;;;;;13.07;4.97;;;9.50;99.90;;;;;;5071389;28;20218;-65
2021/05/16 01:39:47;;;;;;;16.47;6.70;;;9.40;99.90;;;;;;5071105;28;20675;-66
2021/05/16 01:42:17;;;;;;;11.00;5.43;;;9.40;99.90;;;;;;5071061;28;20232;-65
2021/05/16 01:44:43;;;;;;;18.67;5.33;;;9.30;99.90;;;;;;5071516;28;20202;-65
2021/05/16 01:47:09;;;;;;;11.07;5.13;;;9.40;99.90;;;;;;5071192;28;20178;-66
2021/05/16 01:49:47;;;;;;;13.30;5.60;;;9.30;99.90;;;;;;5071436;28;20189;-65
2021/05/16 01:52:13;;;;;;;10.30;5.40;;;9.30;99.90;;;;;;5071070;28;20186;-65
2021/05/16 01:54:39;;;;;;;19.67;5.70;;;9.30;99.90;;;;;;5072114;28;20206;-65
2021/05/16 01:57:06;;;;;;;15.80;5.37;;;9.30;99.90;;;;;;5075209;28;20281;-65
2021/05/16 01:59:33;;;;;;;20.43;5.60;;;9.30;99.90;;;;;;5075150;28;20182;-65
2021/05/16 02:02:01;;;;;;;20.40;5.53;;;9.30;99.90;;;;;;5075035;28;20625;-65
2021/05/16 02:04:31;;;;;;;17.70;6.13;;;9.30;99.90;;;;;;5074909;28;20196;-65
2021/05/16 02:06:58;;;;;;;24.87;5.80;;;9.30;99.90;;;;;;5075982;28;20619;-66
2021/05/16 02:09:25;;;;;;;18.23;5.60;;;9.30;99.90;;;;;;5076854;28;20182;-67
2021/05/16 02:11:51;;;;;;;14.53;6.20;;;9.30;99.90;;;;;;5076668;28;20245;-69
2021/05/16 02:14:25;;;;;;;18.23;5.17;;;9.30;99.90;;;;;;5076259;28;20201;-70
2021/05/16 02:16:51;;;;;;;18.27;5.60;;;9.30;99.90;;;;;;5077054;28;20205;-67
2021/05/16 02:19:16;;;;;;;10.47;6.07;;;9.20;99.90;;;;;;5075729;28;20182;-64
2021/05/16 02:21:43;;;;;;;16.57;5.53;;;9.10;99.90;;;;;;5074681;28;20698;-64
2021/05/16 02:24:09;;;;;;;13.70;5.13;;;9.10;99.90;;;;;;5074361;28;20197;-64
2021/05/16 02:26:34;;;;;;;13.70;4.83;;;8.90;99.90;;;;;;5074595;28;20602;-64
2021/05/16 02:29:00;;;;;;;18.70;5.80;;;8.80;99.90;;;;;;5074715;28;20261;-65
2021/05/16 02:31:26;;;;;;;17.87;5.80;;;8.80;99.90;;;;;;5074337;28;20170;-64
2021/05/16 02:33:51;;;;;;;17.60;4.97;;;8.70;99.90;;;;;;5074532;28;20202;-65
2021/05/16 02:36:17;;;;;;;11.20;5.63;;;8.50;99.90;;;;;;5074220;28;21592;-64
2021/05/16 02:38:43;;;;;;;17.77;5.80;;;8.40;99.90;;;;;;5074546;28;20166;-65
2021/05/16 02:41:08;;;;;;;19.67;5.80;;;8.40;99.90;;;;;;5073787;28;20202;-64
2021/05/16 02:43:34;;;;;;;19.03;5.73;;;8.30;99.90;;;;;;5074218;28;20190;-64
2021/05/16 02:45:59;;;;;;;14.40;5.70;;;8.20;99.90;;;;;;5074520;28;20649;-65
2021/05/16 02:48:25;;;;;;;14.10;5.07;;;8.20;99.90;;;;;;5074035;28;20178;-65
2021/05/16 02:50:51;;;;;;;16.60;5.57;;;8.10;99.90;;;;;;5074168;28;20225;-65
2021/05/16 02:53:20;;;;;;;12.33;5.37;;;8.00;99.90;;;;;;5073080;28;20194;-65
2021/05/16 02:55:46;;;;;;;17.57;6.23;;;8.00;99.90;;;;;;5074470;28;20182;-65
2021/05/16 02:58:12;;;;;;;16.63;5.03;;;7.90;99.90;;;;;;5073930;28;20178;-65
2021/05/16 03:00:37;;;;;;;17.00;5.77;;;7.90;99.90;;;;;;5073544;28;20175;-65
2021/05/16 03:03:03;;;;;;;15.63;6.17;;;7.80;99.90;;;;;;5074076;28;20285;-65
2021/05/16 03:05:30;;;;;;;10.83;5.10;;;7.80;99.90;;;;;;5073141;28;20603;-64
2021/05/16 03:07:55;;;;;;;16.47;5.77;;;7.80;99.90;;;;;;5074078;28;20265;-65
2021/05/16 03:10:21;;;;;;;20.27;6.27;;;7.70;99.90;;;;;;5073370;28;20257;-65
2021/05/16 03:12:46;;;;;;;16.90;6.33;;;7.70;99.90;;;;;;5073967;28;20621;-65
2021/05/16 03:15:13;;;;;;;12.93;5.23;;;7.60;99.90;;;;;;5073672;28;20174;-65
2021/05/16 03:17:39;;;;;;;16.97;6.53;;;7.60;99.90;;;;;;5073868;28;20257;-65
2021/05/16 03:20:06;;;;;;;18.40;6.63;;;7.60;99.90;;;;;;5073641;28;20269;-65
2021/05/16 03:22:32;;;;;;;17.67;7.27;;;7.50;99.90;;;;;;5072662;28;20205;-65
2021/05/16 03:24:57;;;;;;;16.60;6.03;;;7.50;99.90;;;;;;5073950;28;20178;-64
2021/05/16 03:27:23;;;;;;;14.43;6.13;;;7.50;99.90;;;;;;5073488;28;20178;-64
2021/05/16 03:29:49;;;;;;;15.73;6.00;;;7.40;99.90;;;;;;5073189;28;20182;-64
2021/05/16 03:32:14;;;;;;;16.50;6.27;;;7.40;99.90;;;;;;5073564;28;20177;-65
2021/05/16 03:34:40;;;;;;;19.50;6.70;;;7.40;99.90;;;;;;5082206;22;20225;-65
2021/05/16 03:37:05;;;;;;;14.30;7.20;;;7.30;99.90;;;;;;5088214;28;20634;-65
2021/05/16 03:39:31;;;;;;;17.67;6.03;;;7.30;99.90;;;;;;5072646;28;20745;-65
2021/05/16 03:41:57;;;;;;;14.30;6.97;;;7.30;99.90;;;;;;5092257;28;20284;-65
2021/05/16 03:44:26;;;;;;;17.00;6.67;;;7.30;99.90;;;;;;5093300;28;20331;-65
2021/05/16 03:46:53;;;;;;;16.40;6.97;;;7.20;99.90;;;;;;5075185;28;20251;-65
2021/05/16 03:49:19;;;;;;;16.70;6.50;;;7.30;99.90;;;;;;5073157;28;20271;-65
2021/05/16 03:51:44;;;;;;;13.23;6.70;;;7.30;99.90;;;;;;5073138;28;20698;-65
2021/05/16 03:54:11;;;;;;;16.73;7.07;;;7.20;99.90;;;;;;5073040;28;20573;-65
2021/05/16 03:56:37;;;;;;;18.10;7.57;;;7.30;99.90;;;;;;5087354;28;20208;-65
2021/05/16 03:59:03;;;;;;;20.17;7.27;;;7.30;99.90;;;;;;5091825;28;20658;-65
2021/05/16 04:01:29;;;;;;;15.27;7.70;;;7.30;99.90;;;;;;5072444;28;20209;-65
2021/05/16 04:03:54;;;;;;;16.77;7.43;;;7.30;99.90;;;;;;5073078;28;20223;-65
2021/05/16 04:06:20;;;;;;;16.73;7.87;;;7.30;99.90;;;;;;5092345;28;20227;-65
2021/05/16 04:08:46;;;;;;;11.37;7.27;;;7.30;99.90;;;;;;5093013;28;20634;-65
2021/05/16 04:11:12;;;;;;;15.97;7.63;;;7.40;99.90;;;;;;5079200;28;20170;-65
2021/05/16 04:13:37;;;;;;;14.77;7.60;;;7.40;99.90;;;;;;5092910;28;20566;-65
2021/05/16 04:16:03;;;;;;;16.60;8.77;;;7.50;99.90;;;;;;5076578;28;20263;-65
2021/05/16 04:18:29;;;;;;;12.33;8.23;;;7.50;99.90;;;;;;5072353;28;20257;-65
2021/05/16 04:20:55;;;;;;;16.47;8.10;;;7.60;99.90;;;;;;5086600;28;20269;-65
2021/05/16 04:23:21;;;;;;;19.07;8.00;;;7.70;99.90;;;;;;5092674;28;20165;-65
2021/05/16 04:25:47;;;;;;;16.17;8.80;;;7.90;99.90;;;;;;5079638;28;20165;-65
2021/05/16 04:28:12;;;;;;;13.77;9.13;;;8.00;99.90;;;;;;5072329;28;20201;-65
2021/05/16 04:30:38;;;;;;;19.80;8.33;;;8.20;99.90;;;;;;5091186;28;20181;-65
2021/05/16 04:33:04;;;;;;;19.43;7.73;;;8.50;99.90;;;;;;5092544;28;20200;-65
2021/05/16 04:35:29;;;;;;;16.37;7.70;;;8.80;99.90;;;;;;5074339;28;20721;-65
2021/05/16 04:37:55;;;;;;;18.07;8.57;;;9.10;99.90;;;;;;5072260;28;20171;-65
2021/05/16 04:40:21;;;;;;;13.63;7.37;;;9.30;99.90;;;;;;5087270;28;20695;-65
2021/05/16 04:42:47;;;;;;;6.67;6.03;;;9.60;99.90;;;;;;5072203;28;20202;-65
2021/05/16 04:45:13;;;;;;;9.43;5.83;;;10.00;99.90;;;;;;5086550;28;20720;-65
2021/05/16 04:47:39;;;;;;;11.33;6.00;;;10.20;99.90;;;;;;5092568;28;20166;-65
2021/05/16 04:50:05;;;;;;;12.57;6.10;;;10.40;99.90;;;;;;5090402;28;20184;-65
2021/05/16 04:52:31;;;;;;;6.07;4.67;;;10.70;99.90;;;;;;5092462;28;20177;-65
2021/05/16 04:54:56;;;;;;;7.10;4.60;;;10.90;99.90;;;;;;5081062;28;20194;-65
2021/05/16 04:57:22;;;;;;;8.20;4.93;;;11.00;99.90;;;;;;5071816;28;20178;-65
2021/05/16 04:59:50;;;;;;;11.23;5.07;;;11.00;99.90;;;;;;5088145;28;20216;-65
2021/05/16 05:02:16;;;;;;;9.00;4.77;;;11.00;99.90;;;;;;5091827;28;20204;-65
2021/05/16 05:04:41;;;;;;;9.37;4.60;;;10.80;99.90;;;;;;5076336;28;20198;-65
2021/05/16 05:07:07;;;;;;;12.03;4.77;;;10.80;99.90;;;;;;5072008;28;20174;-65
2021/05/16 05:09:36;;;;;;;10.30;4.40;;;10.70;99.90;;;;;;5085034;28;20197;-65
2021/05/16 05:12:02;;;;;;;10.17;5.03;;;10.70;99.90;;;;;;5091726;28;20626;-65
2021/05/16 05:14:31;;;;;;;9.10;5.40;;;10.70;99.90;;;;;;5079033;28;20229;-65
2021/05/16 05:16:57;;;;;;;6.77;4.70;;;10.80;99.90;;;;;;5071668;28;20170;-65
2021/05/16 05:19:22;;;;;;;9.90;4.77;;;10.90;99.90;;;;;;5082289;28;20184;-65
2021/05/16 05:21:48;;;;;;;12.50;4.23;;;11.00;99.90;;;;;;5076181;28;20739;-65
2021/05/16 05:24:13;;;;;;;7.63;4.07;;;11.20;99.90;;;;;;5080387;28;20193;-65
2021/05/16 05:26:39;;;;;;;8.07;4.73;;;11.40;99.90;;;;;;5091554;28;20165;-65
2021/05/16 05:29:05;;;;;;;8.70;4.20;;;11.60;99.90;;;;;;5075236;28;20190;-65
2021/05/16 05:31:31;;;;;;;6.83;3.97;;;11.70;99.90;;;;;;5071139;28;20174;-66
2021/05/16 05:33:56;;;;;;;7.97;4.20;;;11.80;99.90;;;;;;5084986;28;20200;-65
2021/05/16 05:36:22;;;;;;;8.37;4.87;;;11.80;99.90;;;;;;5091541;28;20169;-65
2021/05/16 05:38:47;;;;;;;14.47;5.63;;;11.90;99.90;;;;;;5079135;28;20658;-66
2021/05/16 05:41:14;;;;;;;9.20;5.47;;;11.90;99.90;;;;;;5070877;28;20181;-65
2021/05/16 05:43:40;;;;;;;8.70;4.53;;;12.00;99.90;;;;;;5081433;28;20209;-65
2021/05/16 05:46:06;;;;;;;11.47;4.33;;;12.00;99.90;;;;;;5076807;28;20712;-65
2021/05/16 05:48:32;;;;;;;8.47;4.60;;;12.00;99.90;;;;;;5079695;28;20201;-66
2021/05/16 05:50:58;;;;;;;7.33;4.70;;;12.10;99.90;;;;;;5091159;28;20207;-66
2021/05/16 05:53:24;;;;;;;7.70;4.60;;;12.20;99.90;;;;;;5084035;28;20174;-65
2021/05/16 05:55:49;;;;;;;6.03;3.97;;;12.40;99.90;;;;;;5071281;28;20572;-65
2021/05/16 05:58:15;;;;;;;10.60;4.97;;;12.50;99.90;;;;;;5070962;28;20190;-65
2021/05/16 06:00:41;;;;;;;7.60;4.17;;;12.60;99.90;;;;;;5070740;28;20166;-65
2021/05/16 06:03:06;;;;;;;9.97;4.87;;;12.70;99.90;;;;;;5082021;28;20300;-65
2021/05/16 06:05:32;;;;;;;11.00;5.00;;;12.70;99.90;;;;;;5091275;28;20194;-65
2021/05/16 06:07:58;;;;;;;10.27;4.73;;;12.70;99.90;;;;;;5081558;28;20536;-66
2021/05/16 06:10:25;;;;;;;12.00;5.10;;;12.70;99.90;;;;;;5070693;28;20175;-65
2021/05/16 06:12:51;;;;;;;10.07;4.60;;;12.70;99.90;;;;;;5078799;28;20631;-65
2021/05/16 06:15:17;;;;;;;11.03;4.47;;;12.50;99.90;;;;;;5091143;28;20250;-65
2021/05/16 06:17:42;;;;;;;10.10;4.83;;;12.40;99.90;;;;;;5084766;28;20590;-65
2021/05/16 06:20:08;;;;;;;8.93;4.47;;;12.30;99.90;;;;;;5069037;28;20639;-65
2021/05/16 06:22:34;;;;;;;8.87;5.20;;;12.00;99.90;;;;;;5070917;28;20572;-65
2021/05/16 06:25:00;;;;;;;21.17;5.80;;;11.80;99.90;;;;;;5070818;28;20190;-65
2021/05/16 06:27:26;;;;;;;12.10;5.23;;;11.60;99.90;;;;;;5081609;28;20196;-65
2021/05/16 06:29:52;;;;;;;9.57;5.30;;;11.40;99.90;;;;;;5084794;28;20183;-65
2021/05/16 06:32:18;;;;;;;13.87;5.83;;;11.30;99.90;;;;;;5070615;28;20177;-66
2021/05/16 06:34:43;;;;;;;16.70;5.93;;;11.10;99.90;;;;;;5071615;28;20217;-66
2021/05/16 06:37:09;;;;;;;12.13;5.57;;;10.90;99.90;;;;;;5089919;28;20208;-65
2021/05/16 06:39:35;;;;;;;20.07;5.90;;;10.70;99.90;;;;;;5088403;28;20189;-65
2021/05/16 06:42:01;;;;;;;13.50;6.23;;;10.60;99.90;;;;;;5073164;28;20217;-65
2021/05/16 06:44:26;;;;;;;16.80;6.83;;;10.60;99.90;;;;;;5090318;28;20259;-65
2021/05/16 06:46:52;;;;;;;13.13;6.80;;;10.60;99.90;;;;;;5074177;28;20259;-65
2021/05/16 06:49:18;;;;;;;16.60;7.17;;;10.70;99.90;;;;;;5089458;28;20173;-64
2021/05/16 06:51:44;;;;;;;19.13;7.07;;;10.70;99.90;;;;;;5091039;28;20631;-65
2021/05/16 06:54:10;;;;;;;11.03;6.30;;;10.90;99.90;;;;;;5080377;28;20229;-65
2021/05/16 06:56:36;;;;;;;17.90;7.60;;;10.90;99.90;;;;;;5073974;28;20620;-65
2021/05/16 06:59:02;;;;;;;19.43;7.13;;;10.90;99.90;;;;;;5086062;28;20241;-65
2021/05/16 07:01:28;;;;;;;16.23;6.73;;;10.90;99.90;;;;;;5093936;28;20247;-65
2021/05/16 07:03:53;;;;;;;14.47;6.60;;;11.00;99.90;;;;;;5080665;28;20230;-65
2021/05/16 07:06:19;;;;;;;14.77;6.40;;;11.00;99.90;;;;;;5088634;28;20260;-65
2021/05/16 07:08:47;;;;;;;14.17;6.30;;;11.10;99.90;;;;;;5083983;28;20181;-65
2021/05/16 07:11:13;;;;;;;14.73;7.57;;;11.20;99.90;;;;;;5093624;28;20170;-65
2021/05/16 07:13:39;;;;;;;14.97;7.07;;;11.30;99.90;;;;;;5091620;28;20193;-65
2021/05/16 07:16:05;;;;;;;10.50;6.20;;;11.50;99.90;;;;;;5085375;28;20661;-65
2021/05/16 07:18:30;;;;;;;12.60;5.83;;;11.60;99.90;;;;;;5092680;28;20174;-65
2021/05/16 07:20:56;;;;;;;10.50;6.80;;;11.60;99.90;;;;;;5072847;28;20170;-65
2021/05/16 07:23:21;;;;;;;10.13;5.70;;;11.70;99.90;;;;;;5072561;28;20206;-65
2021/05/16 07:25:47;;;;;;;14.17;6.37;;;11.80;99.90;;;;;;5083612;28;20182;-65
2021/05/16 07:28:13;;;;;;;12.53;5.53;;;11.90;99.90;;;;;;5073770;28;20190;-65
2021/05/16 07:30:38;;;;;;;19.77;6.00;;;12.00;99.90;;;;;;5078225;28;20178;-65
2021/05/16 07:33:04;;;;;;;10.23;5.37;;;12.10;99.90;;;;;;5087681;28;20193;-65
2021/05/16 07:35:30;;;;;;;11.07;5.53;;;12.20;99.90;;;;;;5077581;28;20224;-65
2021/05/16 07:37:55;;;;;;;11.33;5.50;;;12.40;99.90;;;;;;5090258;28;20189;-65
2021/05/16 07:40:21;;;;;;;11.13;4.80;;;12.60;99.90;;;;;;5078972;28;20178;-65
2021/05/16 07:42:49;;;;;;;9.57;5.00;;;12.70;99.90;;;;;;5073063;28;20690;-65
2021/05/16 07:45:16;;;;;;;11.80;4.90;;;12.80;99.90;;;;;;5080053;28;20196;-66
2021/05/16 07:47:42;;;;;;;10.77;4.63;;;12.80;99.90;;;;;;5086835;28;20228;-65
2021/05/16 07:50:09;;;;;;;7.53;4.27;;;13.00;99.90;;;;;;5086853;28;20185;-66
2021/05/16 07:52:35;;;;;;;7.93;4.27;;;13.20;99.90;;;;;;5087425;28;20269;-65
2021/05/16 07:55:00;;;;;;;8.50;4.27;;;13.60;99.90;;;;;;5076155;28;20280;-65
2021/05/16 07:57:27;;;;;;;10.97;4.20;;;13.80;99.90;;;;;;5076353;28;20182;-65
2021/05/16 07:59:53;;;;;;;9.00;4.60;;;14.00;99.90;;;;;;5078817;28;20186;-65
2021/05/16 08:02:20;;;;;;;12.73;4.27;;;14.20;99.90;;;;;;5072865;28;20566;-66
2021/05/16 08:04:46;;;;;;;6.70;3.60;;;14.40;99.90;;;;;;5080914;28;20197;-65
2021/05/16 08:07:11;;;;;;;7.97;3.60;;;14.50;99.90;;;;;;5081699;28;20265;-66
2021/05/16 08:09:37;;;;;;;7.50;3.87;;;14.60;99.90;;;;;;5072673;28;20228;-66
2021/05/16 08:12:03;;;;;;;6.83;3.73;;;14.80;99.90;;;;;;5073580;28;20268;-66
2021/05/16 08:14:28;;;;;;;7.43;4.20;;;15.00;99.90;;;;;;5073104;28;20225;-66
2021/05/16 08:16:55;;;;;;;6.67;3.10;;;15.10;99.90;;;;;;5072509;28;20186;-65
2021/05/16 08:19:21;;;;;;;9.90;4.77;;;15.10;99.90;;;;;;5080927;28;20177;-65
2021/05/16 08:21:47;;;;;;;7.07;3.43;;;15.00;99.90;;;;;;5092372;28;20292;-65
2021/05/16 08:24:14;;;;;;;6.57;3.77;;;14.80;99.90;;;;;;5083641;28;20332;-65
2021/05/16 08:26:40;;;;;;;7.07;3.57;;;14.80;99.90;;;;;;5084593;28;20217;-66
2021/05/16 08:29:06;;;;;;;6.87;3.33;;;14.90;99.90;;;;;;5072327;28;20173;-66
2021/05/16 08:31:35;;;;;;;6.13;3.20;;;15.10;99.90;;;;;;5071801;28;20182;-66
2021/05/16 08:34:03;;;;;;;5.73;3.20;;;15.70;99.90;;;;;;5072274;28;20210;-66
2021/05/16 08:36:34;;;;;;;6.43;3.17;;;16.30;99.90;;;;;;5071966;28;20273;-66
2021/05/16 08:39:00;;;;;;;3.67;2.97;;;17.00;99.90;;;;;;5075858;28;20252;-66
2021/05/16 08:41:26;;;;;;;7.33;3.00;;;17.70;99.90;;;;;;5076649;28;20294;-66
2021/05/16 08:43:52;;;;;;;10.80;3.90;;;18.10;99.90;;;;;;5077387;28;20277;-66
2021/05/16 08:46:18;;;;;;;6.90;3.70;;;18.30;99.90;;;;;;5072324;28;20182;-66
2021/05/16 08:48:44;;;;;;;9.63;4.07;;;18.60;99.90;;;;;;5077957;28;20240;-66
2021/05/16 08:51:10;;;;;;;6.70;3.27;;;18.60;99.90;;;;;;5083552;28;20190;-66
2021/05/16 08:53:37;;;;;;;7.63;3.63;;;18.70;99.90;;;;;;5076264;28;20193;-66
2021/05/16 08:56:06;;;;;;;8.40;3.87;;;18.60;99.90;;;;;;5085842;28;20339;-66
2021/05/16 08:58:32;;;;;;;10.40;3.43;;;18.90;99.90;;;;;;5088004;28;20279;-65
2021/05/16 09:00:58;;;;;;;11.97;3.93;;;19.10;99.90;;;;;;5082418;28;20181;-66
2021/05/16 09:03:24;;;;;;;7.00;4.13;;;19.00;99.90;;;;;;5087283;28;20221;-66
2021/05/16 09:05:52;;;;;;;7.27;3.63;;;18.80;99.90;;;;;;5071796;28;20181;-66
2021/05/16 09:08:23;;;;;;;8.17;3.47;;;19.00;99.90;;;;;;5073097;28;20635;-65
2021/05/16 09:10:58;;;;;;;9.50;3.57;;;19.30;99.90;;;;;;5081367;28;20207;-66
2021/05/16 09:13:29;;;;;;;9.07;3.97;;;19.50;99.90;;;;;;5079431;28;20192;-65
2021/05/16 09:16:08;;;;;;;8.50;3.53;;;19.90;99.90;;;;;;5091825;28;20281;-66
2021/05/16 09:18:42;;;;;;;12.27;4.10;;;20.20;99.90;;;;;;5079684;28;20193;-66
2021/05/16 09:23:59;;;;;;;13.00;3.95;;;20.90;99.90;;;;;;5086955;28;20262;-65
2021/05/16 09:26:29;;;;;;;5.90;3.40;;;20.30;99.90;;;;;;5076290;28;20182;-65
2021/05/16 09:28:55;;;;;;;6.03;3.33;;;19.60;99.90;;;;;;5071617;28;20198;-65
2021/05/16 09:31:34;;;;;;;9.07;3.60;;;19.00;99.90;;;;;;5085081;28;20199;-65
2021/05/16 09:34:01;;;;;;;8.90;3.70;;;18.30;99.90;;;;;;5087889;28;20216;-65
2021/05/16 09:36:33;;;;;;;7.70;3.47;;;17.80;99.90;;;;;;5070793;28;20178;-66
2021/05/16 09:39:34;;;;;;;8.80;4.20;;;17.40;99.90;;;;;;5070216;28;20249;-65
2021/05/16 09:42:13;;;;;;;6.57;3.50;;;16.30;99.90;;;;;;5028411;28;20211;-66
2021/05/16 09:44:47;;;;;;;8.07;3.87;;;15.80;99.90;;;;;;5051583;28;20683;-66
2021/05/16 09:47:22;;;;;;;11.57;4.10;;;15.90;99.90;;;;;;5077318;28;20177;-65
2021/05/16 09:50:01;;;;;;;11.33;4.40;;;16.20;99.90;;;;;;5089648;28;20181;-66
2021/05/16 09:52:32;;;;;;;6.97;3.40;;;16.70;99.90;;;;;;5090003;28;20191;-65
2021/05/16 09:55:07;;;;;;;7.87;3.33;;;17.30;99.90;;;;;;5088184;28;20254;-66
2021/05/16 09:57:36;;;;;;;6.93;3.40;;;18.30;99.90;;;;;;5071209;28;20524;-65
2021/05/16 10:00:04;;;;;;;6.07;3.33;;;19.00;99.90;;;;;;5074014;28;20212;-65
2021/05/16 10:02:30;;;;;;;8.88;3.42;;;19.60;99.90;;;;;;5091025;28;20216;-66
2021/05/16 10:05:01;;;;;;;7.85;3.75;;;20.20;99.90;;;;;;5073044;28;20678;-65
2021/05/16 10:07:28;;;;;;;6.05;2.95;;;20.60;99.90;;;;;;5070881;28;20175;-65
2021/05/16 10:09:55;;;;;;;5.10;3.40;;;21.10;99.90;;;;;;5083721;28;20241;-65
2021/05/16 10:12:23;;;;;;;6.78;2.80;;;20.90;99.90;;;;;;5070539;28;20201;-66
2021/05/16 10:15:02;;;;;;;8.55;3.05;;;21.30;99.90;;;;;;5078361;28;20309;-65
2021/05/16 10:17:32;;;;;;;6.38;3.30;;;21.40;99.90;;;;;;5093270;28;20181;-66
2021/05/16 10:19:58;;;;;;;3.90;2.90;;;21.70;99.90;;;;;;5078526;28;20762;-65
2021/05/16 10:22:27;;;;;;;8.07;4.07;;;21.60;99.90;;;;;;5074344;28;20210;-66
2021/05/16 10:24:54;;;;;;;5.80;3.33;;;20.40;99.90;;;;;;5088146;28;20197;-66
2021/05/16 10:27:25;;;;;;;4.20;2.63;;;19.80;99.90;;;;;;5074176;28;20182;-66
2021/05/16 10:29:54;;;;;;;8.40;3.07;;;19.60;99.90;;;;;;5087475;28;20541;-65
2021/05/16 10:32:41;;;;;;;6.70;3.40;;;19.20;99.90;;;;;;5074214;28;20170;-66
2021/05/16 10:35:11;;;;;;;5.90;3.00;;;18.60;99.90;;;;;;5054313;28;20211;-65
2021/05/16 10:37:47;;;;;;;5.40;3.10;;;18.40;99.90;;;;;;5057313;28;20178;-65
2021/05/16 10:40:19;;;;;;;8.53;3.57;;;18.60;99.90;;;;;;5088925;28;20658;-66
2021/05/16 10:42:45;;;;;;;6.50;3.03;;;18.70;99.90;;;;;;5075878;28;20205;-65
2021/05/16 10:45:21;;;;;;;6.23;2.97;;;19.50;99.90;;;;;;5089588;28;20194;-66
2021/05/16 10:47:54;;;;;;;6.65;2.80;;;19.90;99.90;;;;;;5085846;28;20252;-65
2021/05/16 10:50:23;;;;;;;9.67;3.10;;;19.90;99.90;;;;;;5088283;28;20198;-66
2021/05/16 10:53:27;;;;;;;8.25;3.25;;;20.00;99.90;;;;;;5081221;28;20177;-65
2021/05/16 10:56:05;;;;;;;5.75;3.10;;;20.10;99.90;;;;;;5084735;28;20655;-65
2021/05/16 10:58:46;;;;;;;6.18;3.13;;;20.40;99.90;;;;;;5073902;28;20260;-66
2021/05/16 11:01:37;;;;;;;4.72;3.50;;;20.70;99.90;;;;;;5086438;28;20273;-66
2021/05/16 11:04:05;;;;;;;5.70;3.38;;;20.50;99.90;;;;;;5076093;28;20254;-65
2021/05/16 11:06:31;;;;;;;5.95;3.00;;;20.80;99.90;;;;;;5088740;28;20203;-66
2021/05/16 11:08:56;;;;;;;6.15;3.00;;;21.40;99.90;;;;;;5093837;28;20178;-65
2021/05/16 11:11:46;;;;;;;4.97;3.30;;;21.70;99.90;;;;;;5078821;28;20237;-65
2021/05/16 11:14:24;;;;;;;5.60;3.00;;;21.90;99.90;;;;;;5073498;28;20243;-66
2021/05/16 11:16:58;;;;;;;6.57;2.88;;;22.90;99.90;;;;;;5074719;28;20551;-66
2021/05/16 11:19:27;;;;;;;5.18;2.97;;;23.50;99.90;;;;;;5080672;28;20177;-65
2021/05/16 11:21:53;;;;;;;4.88;2.95;;;24.00;99.90;;;;;;5093688;28;20193;-65
2021/05/16 11:24:39;;;;;;;5.70;2.50;;;24.80;99.90;;;;;;5088233;28;20650;-65
2021/05/16 11:27:27;;;;;;;4.95;2.50;;;25.30;99.90;;;;;;5093111;28;20173;-66
2021/05/16 11:30:11;;;;;;;5.70;3.03;;;25.90;99.90;;;;;;5079703;28;20182;-65
2021/05/16 11:32:37;;;;;;;4.07;2.90;;;25.00;99.90;;;;;;5093889;28;20227;-65
2021/05/16 11:35:11;;;;;;;6.78;3.25;;;24.20;99.90;;;;;;5085222;28;20213;-66
2021/05/16 11:37:38;;;;;;;5.72;2.75;;;23.70;99.90;;;;;;5093573;28;20260;-66
2021/05/16 11:40:19;;;;;;;5.47;2.78;;;23.40;99.90;;;;;;5081146;28;20594;-65
2021/05/16 11:42:45;;;;;;;5.97;3.03;;;23.00;99.90;;;;;;5091770;28;20225;-66
2021/05/16 11:45:12;;;;;;;10.82;3.40;;;22.70;99.90;;;;;;5077468;28;20204;-65
2021/05/16 11:47:39;;;;;;;6.15;2.63;;;22.40;99.90;;;;;;5052979;28;20167;-66
2021/05/16 11:50:07;;;;;;;4.95;2.50;;;22.10;99.90;;;;;;5052864;28;20175;-65
2021/05/16 11:52:34;;;;;;;4.13;2.53;;;22.50;99.90;;;;;;5090033;28;20189;-66
2021/05/16 11:55:05;;;;;;;7.10;2.70;;;22.70;99.90;;;;;;5080214;28;20198;-66
2021/05/16 11:57:31;;;;;;;9.50;3.00;;;22.60;99.90;;;;;;5071956;28;20712;-66
2021/05/16 11:59:57;;;;;;;7.32;2.80;;;22.80;99.90;;;;;;5075282;28;20185;-65
2021/05/16 12:02:22;;;;;;;5.72;3.47;;;23.10;99.90;;;;;;5092722;28;20201;-65
2021/05/16 12:04:48;;;;;;;7.25;3.25;;;23.20;99.90;;;;;;5083970;28;20693;-65
2021/05/16 12:07:13;;;;;;;5.65;2.85;;;23.40;99.90;;;;;;5092781;28;20174;-66
2021/05/16 12:09:41;;;;;;;8.15;3.00;;;23.60;99.90;;;;;;5090160;28;20181;-65
2021/05/16 12:12:18;;;;;;;5.72;3.13;;;23.90;99.90;;;;;;5082584;28;20181;-65
2021/05/16 12:14:45;;;;;;;4.68;2.40;;;24.20;99.90;;;;;;5072323;28;20193;-65
2021/05/16 12:17:10;;;;;;;5.13;2.95;;;24.30;99.90;;;;;;5073735;28;20204;-66
2021/05/16 12:19:39;;;;;;;3.78;2.20;;;24.30;99.90;;;;;;5073566;28;20670;-65
2021/05/16 12:22:07;;;;;;;5.45;2.50;;;24.10;99.90;;;;;;5052240;28;20199;-65
2021/05/16 12:24:37;;;;;;;4.72;2.47;;;23.40;99.90;;;;;;5069569;28;20208;-65
2021/05/16 12:27:07;;;;;;;3.90;2.58;;;22.80;99.90;;;;;;5092591;28;20172;-65
2021/05/16 12:29:33;;;;;;;2.88;2.00;;;23.30;99.90;;;;;;5084429;28;20181;-65
2021/05/16 12:31:59;;;;;;;3.53;2.10;;;24.00;99.90;;;;;;5072046;28;20178;-66
2021/05/16 12:34:26;;;;;;;4.28;2.17;;;23.60;99.90;;;;;;5077325;28;20216;-66
2021/05/16 12:37:02;;;;;;;3.03;2.40;;;23.30;99.90;;;;;;5073383;28;20185;-65
2021/05/16 12:39:39;;;;;;;3.75;2.55;;;23.10;99.90;;;;;;5075330;28;20185;-65
2021/05/16 12:42:23;;;;;;;6.15;2.78;;;23.00;99.90;;;;;;5071563;28;20701;-63
2021/05/16 12:44:49;;;;;;;3.97;2.15;;;22.70;99.90;;;;;;5072915;28;20563;-64
2021/05/16 12:47:28;;;;;;;4.85;2.30;;;22.70;99.90;;;;;;5071718;28;20166;-63
2021/05/16 12:50:05;;;;;;;3.50;2.40;;;22.60;99.90;;;;;;5071740;28;20193;-64